createdAt,value
2023-03-28T00:00:33.976Z,101197.78
2023-03-28T00:03:00.441Z,101205.63
2023-03-28T00:05:28.129Z,101207.84
2023-03-28T00:07:54.896Z,101214.88
2023-03-28T00:10:21.346Z,101224.16
2023-03-28T00:12:47.986Z,101224.28
2023-03-28T00:15:15.259Z,101229.72
2023-03-28T00:17:41.730Z,101236.75
2023-03-28T00:20:10.573Z,101243.72
2023-03-28T00:22:39.169Z,101239.75
2023-03-28T00:25:07.398Z,101243.84
2023-03-28T00:27:35.240Z,101247.34
2023-03-28T00:30:03.586Z,101242.09
2023-03-28T00:32:30.055Z,101242.28
2023-03-28T00:34:56.500Z,101252.47
2023-03-28T00:37:23.171Z,101258.03
2023-03-28T00:39:53.860Z,101258.16
2023-03-28T00:42:23.249Z,101249.09
2023-03-28T00:44:53.384Z,101258.50
2023-03-28T00:47:45.574Z,101263.63
2023-03-28T00:50:36.712Z,101267.00
2023-03-28T00:53:09.379Z,101275.38
2023-03-28T00:55:51.680Z,101278.31
2023-03-28T00:58:23.164Z,101277.38
2023-03-28T01:00:50.733Z,101282.03
2023-03-28T01:03:19.434Z,101284.97
2023-03-28T01:05:47.855Z,101283.31
2023-03-28T01:08:26.565Z,101284.97
2023-03-28T01:10:53.043Z,101290.34
2023-03-28T01:13:26.978Z,101293.53
2023-03-28T01:15:53.882Z,101288.88
2023-03-28T01:18:23.890Z,101294.00
2023-03-28T01:21:16.915Z,101293.75
2023-03-28T01:23:49.283Z,101289.84
2023-03-28T01:26:34.415Z,101289.31
2023-03-28T01:29:19.128Z,101292.19
2023-03-28T01:32:13.766Z,101290.81
2023-03-28T01:35:01.516Z,101293.47
2023-03-28T01:37:52.201Z,101295.31
2023-03-28T01:40:26.083Z,101298.34
2023-03-28T01:42:59.860Z,101300.66
2023-03-28T01:45:43.042Z,101300.31
2023-03-28T01:48:28.094Z,101296.16
2023-03-28T01:51:19.520Z,101295.91
2023-03-28T01:54:01.631Z,101294.19
2023-03-28T01:56:50.360Z,101293.25
2023-03-28T01:59:38.483Z,101293.09
2023-03-28T02:02:14.002Z,101293.59
2023-03-28T02:04:45.216Z,101297.91
2023-03-28T02:07:13.409Z,101291.69
2023-03-28T02:09:43.975Z,101295.84
2023-03-28T02:12:16.929Z,101297.38
2023-03-28T02:14:46.714Z,101307.63
2023-03-28T02:17:16.499Z,101312.03
2023-03-28T02:19:50.936Z,101319.41
2023-03-28T02:22:30.979Z,101328.97
2023-03-28T02:24:57.729Z,101330.41
2023-03-28T02:27:24.235Z,101328.47
2023-03-28T02:29:54.300Z,101324.84
2023-03-28T02:32:24.226Z,101326.84
2023-03-28T02:34:54.029Z,101328.09
2023-03-28T02:37:38.474Z,101319.88
2023-03-28T02:40:08.031Z,101322.63
2023-03-28T02:42:55.648Z,101323.75
2023-03-28T02:45:40.840Z,101328.47
2023-03-28T02:48:25.628Z,101332.47
2023-03-28T02:51:00.810Z,101331.41
2023-03-28T02:53:36.311Z,101333.41
2023-03-28T02:56:14.655Z,101329.22
2023-03-28T02:58:52.375Z,101328.84
2023-03-28T03:01:19.481Z,101334.25
2023-03-28T03:03:47.030Z,101333.50
2023-03-28T03:06:13.837Z,101341.91
2023-03-28T03:08:40.264Z,101338.63
2023-03-28T03:11:06.886Z,101345.03
2023-03-28T03:13:33.337Z,101345.19
2023-03-28T03:16:00.364Z,101347.72
2023-03-28T03:18:27.511Z,101354.28
2023-03-28T03:20:54.753Z,101346.47
2023-03-28T03:23:21.547Z,101348.44
2023-03-28T03:25:50.516Z,101349.19
2023-03-28T03:28:17.124Z,101349.91
2023-03-28T03:30:43.551Z,101348.66
2023-03-28T03:33:11.332Z,101342.63
2023-03-28T03:35:45.774Z,101362.91
2023-03-28T03:38:13.113Z,101354.41
2023-03-28T03:40:39.753Z,101359.88
2023-03-28T03:43:06.253Z,101360.97
2023-03-28T03:45:32.651Z,101363.75
2023-03-28T03:47:59.153Z,101370.47
2023-03-28T03:50:25.658Z,101372.47
2023-03-28T03:52:52.074Z,101378.50
2023-03-28T03:55:18.564Z,101377.56
2023-03-28T03:57:45.278Z,101376.13
2023-03-28T04:00:12.517Z,101381.59
2023-03-28T04:02:40.050Z,101386.88
2023-03-28T04:05:08.461Z,101387.06
2023-03-28T04:07:35.692Z,101380.31
2023-03-28T04:10:02.683Z,101396.53
2023-03-28T04:12:29.119Z,101388.13
2023-03-28T04:14:55.953Z,101391.78
2023-03-28T04:17:23.427Z,101394.16
2023-03-28T04:19:49.971Z,101398.00
2023-03-28T04:22:18.276Z,101396.00
2023-03-28T04:24:45.787Z,101393.44
2023-03-28T04:27:12.332Z,101394.16
2023-03-28T04:29:39.305Z,101399.97
2023-03-28T04:32:06.593Z,101403.25
2023-03-28T04:34:33.923Z,101402.19
2023-03-28T04:37:02.158Z,101402.53
2023-03-28T04:39:35.677Z,101402.53
2023-03-28T04:42:04.335Z,101406.50
2023-03-28T04:44:31.525Z,101409.22
2023-03-28T04:46:58.252Z,101411.06
2023-03-28T04:49:25.660Z,101412.66
2023-03-28T04:51:52.185Z,101416.66
2023-03-28T04:54:19.332Z,101418.19
2023-03-28T04:56:49.762Z,101423.25
2023-03-28T04:59:17.757Z,101416.31
2023-03-28T05:01:49.694Z,101423.28
2023-03-28T05:04:17.971Z,101422.38
2023-03-28T05:06:46.382Z,101423.63
2023-03-28T05:09:14.581Z,101423.63
2023-03-28T05:11:43.629Z,101429.47
2023-03-28T05:14:10.838Z,101430.16
2023-03-28T05:16:40.988Z,101428.34
2023-03-28T05:19:10.059Z,101433.63
2023-03-28T05:21:41.114Z,101438.06
2023-03-28T05:24:08.880Z,101439.69
2023-03-28T05:26:38.374Z,101449.66
2023-03-28T05:29:05.233Z,101453.13
2023-03-28T05:31:33.751Z,101468.78
2023-03-28T05:34:03.035Z,101461.28
2023-03-28T05:36:30.258Z,101466.97
2023-03-28T05:38:57.202Z,101476.56
2023-03-28T05:41:26.349Z,101486.06
2023-03-28T05:43:53.138Z,101481.09
2023-03-28T05:46:19.976Z,101482.81
2023-03-28T05:48:49.293Z,101489.16
2023-03-28T05:51:16.994Z,101499.31
2023-03-28T05:53:45.749Z,101500.69
2023-03-28T05:56:12.508Z,101515.84
2023-03-28T05:58:40.335Z,101521.50
2023-03-28T06:01:08.040Z,101524.97
2023-03-28T06:03:40.469Z,101525.38
2023-03-28T06:06:08.308Z,101533.81
2023-03-28T06:08:35.060Z,101537.63
2023-03-28T06:11:02.848Z,101556.00
2023-03-28T06:13:31.155Z,101567.53
2023-03-28T06:15:58.414Z,101566.78
2023-03-28T06:18:25.440Z,101563.16
2023-03-28T06:20:52.274Z,101574.19
2023-03-28T06:23:18.987Z,101580.78
2023-03-28T06:25:45.523Z,101583.53
2023-03-28T06:28:11.992Z,101584.00
2023-03-28T06:30:40.032Z,101580.75
2023-03-28T06:33:06.899Z,101583.13
2023-03-28T06:35:37.001Z,101586.44
2023-03-28T06:38:03.566Z,101576.88
2023-03-28T06:40:30.594Z,101589.63
2023-03-28T06:42:57.082Z,101595.28
2023-03-28T06:45:23.981Z,101593.81
2023-03-28T06:47:51.217Z,101600.38
2023-03-28T06:50:18.749Z,101604.38
2023-03-28T06:52:45.805Z,101604.38
2023-03-28T06:55:12.791Z,101609.09
2023-03-28T06:57:39.645Z,101610.16
2023-03-28T07:00:07.381Z,101612.13
2023-03-28T07:02:34.662Z,101609.84
2023-03-28T07:05:01.317Z,101620.34
2023-03-28T07:07:27.912Z,101621.91
2023-03-28T07:09:54.810Z,101625.09
2023-03-28T07:12:21.780Z,101626.56
2023-03-28T07:14:48.325Z,101629.66
2023-03-28T07:17:15.497Z,101635.59
2023-03-28T07:19:41.947Z,101639.03
2023-03-28T07:22:08.627Z,101642.16
2023-03-28T07:24:36.076Z,101638.81
2023-03-28T07:27:14.885Z,101649.91
2023-03-28T07:29:43.152Z,101647.59
2023-03-28T07:32:11.334Z,101650.69
2023-03-28T07:34:37.930Z,101648.72
2023-03-28T07:37:05.521Z,101652.03
2023-03-28T07:39:32.202Z,101646.50
2023-03-28T07:41:58.706Z,101646.41
2023-03-28T07:44:25.419Z,101654.28
2023-03-28T07:46:52.785Z,101649.38
2023-03-28T07:49:23.150Z,101649.97
2023-03-28T07:51:50.429Z,101651.53
2023-03-28T07:54:19.989Z,101647.78
2023-03-28T07:56:49.619Z,101654.69
2023-03-28T07:59:17.261Z,101648.25
2023-03-28T08:01:49.032Z,101655.34
2023-03-28T08:04:15.769Z,101650.41
2023-03-28T08:06:42.327Z,101653.16
2023-03-28T08:09:11.585Z,101659.34
2023-03-28T08:11:39.806Z,101655.47
2023-03-28T08:14:11.175Z,101653.66
2023-03-28T08:16:41.201Z,101651.13
2023-03-28T08:19:11.668Z,101656.69
2023-03-28T08:21:41.456Z,101654.91
2023-03-28T08:24:09.636Z,101650.56
2023-03-28T08:26:37.539Z,101655.28
2023-03-28T08:29:04.888Z,101647.28
2023-03-28T08:31:31.605Z,101646.06
2023-03-28T08:33:58.566Z,101654.13
2023-03-28T08:36:27.175Z,101659.72
2023-03-28T08:38:57.387Z,101653.53
2023-03-28T08:41:46.290Z,101658.38
2023-03-28T08:44:18.790Z,101659.44
2023-03-28T08:46:49.843Z,101661.56
2023-03-28T08:49:17.991Z,101666.00
2023-03-28T08:51:57.648Z,101665.22
2023-03-28T08:54:27.626Z,101665.06
2023-03-28T08:56:57.301Z,101668.25
2023-03-28T08:59:44.431Z,101673.59
2023-03-28T09:02:28.469Z,101678.28
2023-03-28T09:05:08.224Z,101674.94
2023-03-28T09:08:23.913Z,101668.88
2023-03-28T09:10:58.387Z,101673.91
2023-03-28T09:13:34.743Z,101677.84
2023-03-28T09:16:20.149Z,101687.66
2023-03-28T09:19:11.227Z,101682.94
2023-03-28T09:22:15.977Z,101681.47
2023-03-28T09:25:15.475Z,101680.09
2023-03-28T09:28:06.914Z,101680.00
2023-03-28T09:30:38.041Z,101681.91
2023-03-28T09:33:15.996Z,101679.75
2023-03-28T09:35:43.425Z,101687.91
2023-03-28T09:38:38.205Z,101683.34
2023-03-28T09:41:12.054Z,101677.78
2023-03-28T09:43:51.349Z,101678.44
2023-03-28T09:46:40.280Z,101682.50
2023-03-28T09:49:15.499Z,101672.72
2023-03-28T09:51:43.568Z,101677.88
2023-03-28T09:54:11.476Z,101670.41
2023-03-28T09:56:48.011Z,101667.94
2023-03-28T09:59:37.627Z,101678.28
2023-03-28T10:02:05.451Z,101678.06
2023-03-28T10:04:38.519Z,101673.72
2023-03-28T10:07:11.208Z,101666.72
2023-03-28T10:09:55.120Z,101664.91
2023-03-28T10:12:32.026Z,101665.91
2023-03-28T10:14:58.654Z,101656.78
2023-03-28T10:17:30.351Z,101657.38
2023-03-28T10:20:04.802Z,101657.28
2023-03-28T10:22:34.922Z,101655.00
2023-03-28T10:25:07.940Z,101652.50
2023-03-28T10:27:43.271Z,101653.53
2023-03-28T10:30:25.407Z,101654.69
2023-03-28T10:33:29.555Z,101660.66
2023-03-28T10:36:09.607Z,101647.81
2023-03-28T10:38:49.756Z,101645.28
2023-03-28T10:41:28.248Z,101654.03
2023-03-28T10:43:57.688Z,101653.81
2023-03-28T10:46:39.994Z,101650.66
2023-03-28T10:49:14.467Z,101646.38
2023-03-28T10:51:42.166Z,101650.25
2023-03-28T10:54:11.639Z,101644.16
2023-03-28T10:56:52.665Z,101645.41
2023-03-28T10:59:19.316Z,101643.09
2023-03-28T11:02:02.145Z,101641.25
2023-03-28T11:04:50.963Z,101635.19
2023-03-28T11:07:50.843Z,101624.63
2023-03-28T11:10:26.165Z,101624.75
2023-03-28T11:13:04.836Z,101619.19
2023-03-28T11:15:57.656Z,101624.28
2023-03-28T11:18:40.566Z,101626.44
2023-03-28T11:21:25.368Z,101620.59
2023-03-28T11:24:19.555Z,101628.00
2023-03-28T11:27:02.107Z,101617.25
2023-03-28T11:29:49.235Z,101620.97
2023-03-28T11:32:31.611Z,101614.84
2023-03-28T11:35:01.634Z,101613.00
2023-03-28T11:37:31.096Z,101613.63
2023-03-28T11:40:20.187Z,101610.75
2023-03-28T11:42:57.248Z,101605.91
2023-03-28T11:45:52.274Z,101610.59
2023-03-28T11:48:46.153Z,101608.19
2023-03-28T11:51:25.729Z,101602.31
2023-03-28T11:53:54.853Z,101593.19
2023-03-28T11:56:56.317Z,101584.84
2023-03-28T11:59:26.421Z,101590.88
2023-03-28T12:02:01.935Z,101584.09
2023-03-28T12:04:42.979Z,101577.84
2023-03-28T12:07:20.917Z,101573.28
2023-03-28T12:09:56.569Z,101574.19
2023-03-28T12:12:32.733Z,101562.72
2023-03-28T12:15:05.780Z,101560.53
2023-03-28T12:17:40.298Z,101559.63
2023-03-28T12:20:16.105Z,101553.44
2023-03-28T12:22:47.494Z,101559.69
2023-03-28T12:25:26.200Z,101556.84
2023-03-28T12:28:00.349Z,101547.25
2023-03-28T12:30:54.857Z,101549.00
2023-03-28T12:33:37.387Z,101542.19
2023-03-28T12:36:24.180Z,101535.84
2023-03-28T12:38:59.685Z,101535.44
2023-03-28T12:41:34.542Z,101533.31
2023-03-28T12:44:12.731Z,101524.97
2023-03-28T12:46:51.562Z,101530.81
2023-03-28T12:49:29.842Z,101526.97
2023-03-28T12:52:05.273Z,101537.97
2023-03-28T12:54:52.325Z,101532.34
2023-03-28T12:57:46.120Z,101529.78
2023-03-28T13:00:48.801Z,101529.78
2023-03-28T13:03:51.813Z,101527.50
2023-03-28T13:06:36.574Z,101523.91
2023-03-28T13:09:17.954Z,101526.03
2023-03-28T13:12:19.037Z,101532.63
2023-03-28T13:15:17.874Z,101528.41
2023-03-28T13:18:09.085Z,101514.59
2023-03-28T13:20:45.062Z,101509.06
2023-03-28T13:23:14.278Z,101510.56
2023-03-28T13:25:44.285Z,101513.81
2023-03-28T13:28:11.219Z,101510.91
2023-03-28T13:30:57.883Z,101515.06
2023-03-28T13:33:38.928Z,101507.50
2023-03-28T13:36:06.066Z,101511.13
2023-03-28T13:38:46.439Z,101505.97
2023-03-28T13:41:41.380Z,101503.66
2023-03-28T13:44:16.947Z,101498.13
2023-03-28T13:46:46.310Z,101499.97
2023-03-28T13:49:31.661Z,101492.78
2023-03-28T13:52:11.136Z,101489.38
2023-03-28T13:54:37.874Z,101485.22
2023-03-28T13:57:15.402Z,101486.84
2023-03-28T14:00:01.050Z,101476.97
2023-03-28T14:02:36.852Z,101475.88
2023-03-28T14:05:25.456Z,101468.63
2023-03-28T14:07:54.622Z,101466.13
2023-03-28T14:10:34.359Z,101465.47
2023-03-28T14:13:05.386Z,101452.31
2023-03-28T14:15:36.615Z,101459.50
2023-03-28T14:18:12.906Z,101454.06
2023-03-28T14:20:40.480Z,101451.78
2023-03-28T14:23:07.331Z,101450.00
2023-03-28T14:25:36.087Z,101456.88
2023-03-28T14:28:08.936Z,101454.56
2023-03-28T14:30:43.768Z,101463.38
2023-03-28T14:33:13.503Z,101454.09
2023-03-28T14:35:42.919Z,101454.31
2023-03-28T14:38:16.015Z,101447.78
2023-03-28T14:40:45.468Z,101444.91
2023-03-28T14:43:13.829Z,101441.38
2023-03-28T14:45:45.787Z,101439.81
2023-03-28T14:48:18.199Z,101442.41
2023-03-28T14:50:49.184Z,101438.13
2023-03-28T14:53:22.203Z,101440.84
2023-03-28T14:55:51.079Z,101440.53
2023-03-28T14:58:22.455Z,101441.69
2023-03-28T15:00:52.850Z,101439.56
2023-03-28T15:03:24.044Z,101437.28
2023-03-28T15:05:52.876Z,101433.66
2023-03-28T15:08:38.580Z,101434.22
2023-03-28T15:11:08.634Z,101435.78
2023-03-28T15:13:41.648Z,101430.88
2023-03-28T15:16:09.347Z,101435.16
2023-03-28T15:18:47.747Z,101441.69
2023-03-28T15:21:18.793Z,101438.44
2023-03-28T15:23:54.236Z,101441.84
2023-03-28T15:26:45.237Z,101445.69
2023-03-28T15:29:16.603Z,101446.44
2023-03-28T15:31:43.535Z,101451.66
2023-03-28T15:34:12.363Z,101458.50
2023-03-28T15:36:49.230Z,101446.94
2023-03-28T15:39:26.118Z,101446.22
2023-03-28T15:42:18.054Z,101446.28
2023-03-28T15:45:19.025Z,101448.09
2023-03-28T15:47:48.490Z,101448.41
2023-03-28T15:50:40.120Z,101453.59
2023-03-28T15:53:12.468Z,101444.91
2023-03-28T15:55:40.731Z,101443.69
2023-03-28T15:58:13.451Z,101446.16
2023-03-28T16:00:41.962Z,101440.22
2023-03-28T16:03:25.195Z,101435.97
2023-03-28T16:06:31.887Z,101434.66
2023-03-28T16:09:22.228Z,101440.19
2023-03-28T16:12:00.763Z,101442.53
2023-03-28T16:14:27.603Z,101442.09
2023-03-28T16:16:56.002Z,101435.78
2023-03-28T16:19:26.634Z,101435.00
2023-03-28T16:21:54.119Z,101441.22
2023-03-28T16:24:20.736Z,101444.84
2023-03-28T16:26:48.181Z,101445.91
2023-03-28T16:29:15.053Z,101446.81
2023-03-28T16:31:41.666Z,101453.69
2023-03-28T16:34:09.981Z,101450.84
2023-03-28T16:36:37.391Z,101458.41
2023-03-28T16:39:06.250Z,101455.94
2023-03-28T16:41:32.803Z,101451.44
2023-03-28T16:43:59.405Z,101458.94
2023-03-28T16:46:26.154Z,101462.19
2023-03-28T16:48:52.715Z,101458.31
2023-03-28T16:51:19.335Z,101459.88
2023-03-28T16:53:45.907Z,101457.66
2023-03-28T16:56:12.610Z,101457.94
2023-03-28T16:58:39.780Z,101462.66
2023-03-28T17:01:09.362Z,101465.53
2023-03-28T17:03:36.656Z,101465.00
2023-03-28T17:06:08.947Z,101464.47
2023-03-28T17:08:36.370Z,101464.88
2023-03-28T17:11:06.310Z,101469.81
2023-03-28T17:13:34.385Z,101466.84
2023-03-28T17:16:01.324Z,101460.81
2023-03-28T17:18:29.854Z,101460.06
2023-03-28T17:21:08.222Z,101462.00
2023-03-28T17:23:37.327Z,101468.19
2023-03-28T17:26:07.539Z,101477.75
2023-03-28T17:28:39.072Z,101482.69
2023-03-28T17:31:08.363Z,101484.53
2023-03-28T17:33:35.367Z,101474.78
2023-03-28T17:36:23.421Z,101485.53
2023-03-28T17:38:51.429Z,101481.09
2023-03-28T17:41:23.368Z,101486.13
2023-03-28T17:43:51.217Z,101491.00
2023-03-28T17:46:18.167Z,101496.53
2023-03-28T17:48:45.150Z,101500.25
2023-03-28T17:51:14.501Z,101495.66
2023-03-28T17:53:43.344Z,101499.44
2023-03-28T17:56:11.787Z,101500.53
2023-03-28T17:58:39.231Z,101502.25
2023-03-28T18:01:11.553Z,101516.69
2023-03-28T18:03:41.487Z,101521.03
2023-03-28T18:06:08.909Z,101523.38
2023-03-28T18:08:35.813Z,101516.88
2023-03-28T18:11:09.539Z,101535.09
2023-03-28T18:13:37.254Z,101533.50
2023-03-28T18:16:09.136Z,101530.03
2023-03-28T18:18:36.199Z,101538.91
2023-03-28T18:21:04.209Z,101529.16
2023-03-28T18:23:31.843Z,101540.75
2023-03-28T18:25:58.422Z,101543.66
2023-03-28T18:28:25.051Z,101544.31
2023-03-28T18:30:51.522Z,101545.66
2023-03-28T18:33:19.349Z,101536.84
2023-03-28T18:35:46.860Z,101537.22
2023-03-28T18:38:13.954Z,101542.88
2023-03-28T18:40:40.838Z,101548.06
2023-03-28T18:43:08.005Z,101561.09
2023-03-28T18:45:35.845Z,101572.75
2023-03-28T18:48:02.419Z,101568.84
2023-03-28T18:50:29.757Z,101577.34
2023-03-28T18:52:57.376Z,101571.00
2023-03-28T18:55:24.154Z,101572.69
2023-03-28T18:57:50.615Z,101574.81
2023-03-28T19:00:20.518Z,101581.63
2023-03-28T19:02:48.877Z,101581.47
2023-03-28T19:05:16.627Z,101576.94
2023-03-28T19:07:44.361Z,101582.09
2023-03-28T19:10:13.173Z,101587.72
2023-03-28T19:12:41.072Z,101591.78
2023-03-28T19:15:08.643Z,101592.72
2023-03-28T19:17:37.807Z,101594.41
2023-03-28T19:20:12.281Z,101589.69
2023-03-28T19:22:40.339Z,101588.94
2023-03-28T19:25:08.189Z,101588.00
2023-03-28T19:27:35.914Z,101589.84
2023-03-28T19:30:02.958Z,101585.44
2023-03-28T19:32:30.552Z,101589.25
2023-03-28T19:34:57.239Z,101595.31
2023-03-28T19:37:23.752Z,101606.97
2023-03-28T19:39:50.237Z,101606.34
2023-03-28T19:42:18.102Z,101606.50
2023-03-28T19:44:44.570Z,101607.28
2023-03-28T19:47:11.537Z,101611.66
2023-03-28T19:49:38.731Z,101612.84
2023-03-28T19:52:05.675Z,101612.22
2023-03-28T19:54:32.292Z,101613.75
2023-03-28T19:56:58.766Z,101621.28
2023-03-28T19:59:25.269Z,101615.22
2023-03-28T20:01:51.819Z,101615.53
2023-03-28T20:04:20.786Z,101622.63
2023-03-28T20:06:48.728Z,101620.38
2023-03-28T20:09:15.444Z,101626.38
2023-03-28T20:11:42.110Z,101626.09
2023-03-28T20:14:09.244Z,101622.94
2023-03-28T20:16:35.977Z,101624.91
2023-03-28T20:19:02.927Z,101635.22
2023-03-28T20:21:29.595Z,101640.03
2023-03-28T20:23:58.541Z,101630.03
2023-03-28T20:26:27.078Z,101636.38
2023-03-28T20:28:56.814Z,101636.81
2023-03-28T20:31:23.690Z,101639.47
2023-03-28T20:33:52.628Z,101628.69
2023-03-28T20:36:19.179Z,101615.78
2023-03-28T20:38:45.736Z,101614.44
2023-03-28T20:41:14.304Z,101609.91
2023-03-28T20:43:46.540Z,101605.22
2023-03-28T20:46:18.401Z,101607.03
2023-03-28T20:48:46.482Z,101613.69
2023-03-28T20:51:17.148Z,101615.34
2023-03-28T20:53:45.993Z,101619.59
2023-03-28T20:56:13.624Z,101632.59
2023-03-28T20:58:40.796Z,101644.25
2023-03-28T21:01:09.262Z,101658.84
2023-03-28T21:03:52.026Z,101644.22
2023-03-28T21:06:25.290Z,101648.72
2023-03-28T21:08:54.294Z,101637.78
2023-03-28T21:11:24.749Z,101622.25
2023-03-28T21:13:51.234Z,101627.72
2023-03-28T21:16:18.342Z,101633.81
2023-03-28T21:18:45.566Z,101641.34
2023-03-28T21:21:13.797Z,101642.06
2023-03-28T21:23:41.081Z,101642.91
2023-03-28T21:26:19.144Z,101641.81
2023-03-28T21:28:46.436Z,101638.59
2023-03-28T21:31:15.845Z,101640.44
2023-03-28T21:33:42.768Z,101641.75
2023-03-28T21:36:12.249Z,101642.56
2023-03-28T21:38:40.049Z,101641.09
2023-03-28T21:41:07.498Z,101638.38
2023-03-28T21:43:34.410Z,101630.25
2023-03-28T21:46:01.331Z,101631.16
2023-03-28T21:48:29.004Z,101626.09
2023-03-28T21:51:03.045Z,101629.47
2023-03-28T21:53:33.126Z,101627.91
2023-03-28T21:56:00.097Z,101625.03
2023-03-28T21:58:32.709Z,101623.63
2023-03-28T22:01:01.562Z,101632.16
2023-03-28T22:03:29.100Z,101630.88
2023-03-28T22:05:56.074Z,101630.47
2023-03-28T22:08:22.904Z,101624.22
2023-03-28T22:10:58.538Z,101626.84
2023-03-28T22:13:25.277Z,101635.81
2023-03-28T22:15:58.465Z,101642.19
2023-03-28T22:18:25.899Z,101630.94
2023-03-28T22:20:53.356Z,101641.38
2023-03-28T22:23:22.412Z,101637.41
2023-03-28T22:25:49.350Z,101648.66
2023-03-28T22:28:16.254Z,101657.25
2023-03-28T22:30:42.771Z,101666.38
2023-03-28T22:33:11.017Z,101661.81
2023-03-28T22:35:38.318Z,101666.44
2023-03-28T22:38:05.555Z,101651.31
2023-03-28T22:40:32.240Z,101659.44
2023-03-28T22:42:58.971Z,101669.19
2023-03-28T22:45:28.587Z,101671.75
2023-03-28T22:47:58.345Z,101681.44
2023-03-28T22:50:25.036Z,101682.16
2023-03-28T22:52:52.483Z,101688.22
2023-03-28T22:55:22.065Z,101686.75
2023-03-28T22:57:51.348Z,101694.81
2023-03-28T23:00:18.978Z,101693.13
2023-03-28T23:02:46.654Z,101702.41
2023-03-28T23:05:13.597Z,101705.97
2023-03-28T23:07:41.492Z,101702.47
2023-03-28T23:10:14.525Z,101692.94
2023-03-28T23:12:42.072Z,101694.50
2023-03-28T23:15:09.346Z,101695.47
2023-03-28T23:17:35.819Z,101693.63
2023-03-28T23:20:03.416Z,101701.47
2023-03-28T23:22:29.822Z,101703.31
2023-03-28T23:24:56.289Z,101704.63
2023-03-28T23:27:22.687Z,101706.44
2023-03-28T23:29:49.078Z,101703.53
2023-03-28T23:32:15.794Z,101692.53
2023-03-28T23:34:42.231Z,101702.75
2023-03-28T23:37:09.934Z,101692.66
2023-03-28T23:39:37.513Z,101695.41
2023-03-28T23:42:03.997Z,101686.66
2023-03-28T23:44:31.273Z,101689.06
2023-03-28T23:46:57.823Z,101689.63
2023-03-28T23:49:24.339Z,101693.53
2023-03-28T23:51:50.885Z,101691.06
2023-03-28T23:54:18.578Z,101686.28
2023-03-28T23:56:45.049Z,101681.53
2023-03-28T23:59:12.023Z,101677.13
